Pearsonia, Oklahoma
Current Conditions -  °F | °C
As of 1:53 AM on Friday 31 Oct 2014 (Local Time) from KBVO Reporting Station
Clear Clear  
Wind Chill: 53°   Ceiling: Unl
Heat Index: 53°   Visibility: 10mi
Dew Point: 40°   Wind: 13mph
Humidity: 61%   Direction: 360°N
Pressure: 30.24"   Gusts: 20mph
Location:  36.8094°N, 96.3005°W
Report Text: KBVO 310653Z AUTO 36011G17KT 10SM CLR 12/04 A3024 RMK AO2 SLP233 T01170044
Loading
Personal Weather Stations






























Interactive Weather Map
Tropical Storm Tracking
New forecast layout! Learn more

10-Day Weather Forecast

Advertisements
Track Severe Weather on mobile